Data for 06/22/2017

Time Sea-Level Adjusted Pressure Absolute Pressure Temperature Relative Humidity Dew Point   
(mb) (inHg) (mb) (inHg) (C) (F) (%) (C) (F)
00:05 1019 30.09 849 25.07 15.7 60.3 23 -5.2 22.7
00:10 1020 30.12 849 25.07 15.5 59.8 25 -4.5 23.9
00:15 1020 30.12 849 25.07 15 59 30 -2.5 27.6
00:20 1020 30.12 849 25.07 13.7 56.6 32 -2.7 27.1
00:25 1020 30.12 849 25.07 13.1 55.5 33 -2.7 27.1
00:30 1020 30.12 849 25.07 13.1 55.5 33 -2.8 26.9
00:35 1020 30.12 849 25.07 12.8 55 35 -2.4 27.7
00:40 1020 30.12 849 25.07 12.6 54.7 34 -2.8 26.9
00:45 1020 30.12 849 25.07 12.6 54.6 33 -3.3 26.1
00:50 1020 30.12 849 25.07 12.9 55.2 33 -3.1 26.5
00:55 1020 30.12 849 25.07 12.8 55.1 36 -2 28.5
01:00 1020 30.12 849 25.07 12.2 53.9 36 -2.3 27.9
01:05 1020 30.12 849 25.07 12.1 53.7 37 -2.2 28
01:10 1020 30.12 849 25.07 11.8 53.3 36 -2.6 27.3
01:15 1020 30.12 849 25.07 11.8 53.3 36 -2.6 27.2
01:20 1020 30.12 849 25.07 11.9 53.4 36 -2.6 27.3
01:25 1020 30.12 849 25.07 11.9 53.3 38 -2 28.4
01:30 1020 30.12 849 25.07 11.6 52.8 39 -1.7 28.9
01:35 1020 30.12 849 25.07 11.2 52.1 40 -1.7 28.9
01:40 1020 30.12 850 25.1 11.1 51.9 40 -1.8 28.7
01:45 1020 30.12 850 25.1 10.8 51.4 43 -1.4 29.4
01:50 1020 30.12 849 25.07 10.6 51 41 -2.2 28.1
01:55 1020 30.12 849 25.07 10.7 51.3 40 -2.1 28.2
02:00 1020 30.12 850 25.1 10.7 51.2 40 -2.2 28
02:05 1020 30.12 850 25.1 10.7 51.2 40 -2.4 27.7
02:10 1020 30.12 850 25.1 10.7 51.3 40 -2.5 27.6
02:15 1020 30.12 850 25.1 10.6 51.1 40 -2.3 27.8
02:20 1020 30.12 850 25.1 10.4 50.8 40 -2.4 27.6
02:25 1020 30.12 850 25.1 10.2 50.3 41 -2.3 27.8
02:30 1020 30.12 850 25.1 9.9 49.7 42 -2.5 27.6
02:35 1020 30.12 850 25.1 9.7 49.4 42 -2.7 27.2
02:40 1020 30.12 850 25.1 9.7 49.5 40 -3.1 26.4
02:45 1020 30.12 850 25.1 9.9 49.8 38 -3.8 25.2
02:50 1020 30.12 850 25.1 10.1 50.1 37 -4 24.8
02:55 1020 30.12 850 25.1 10.3 50.6 34 -4.7 23.5
03:00 1020 30.12 850 25.1 10.5 50.9 32 -5.4 22.3
03:05 1020 30.12 850 25.1 10.7 51.2 32 -5.3 22.5
03:10 1021 30.15 850 25.1 10.7 51.2 32 -5.3 22.4
03:15 1021 30.15 850 25.1 10.6 51.1 33 -5.1 22.8
03:20 1021 30.15 850 25.1 10.4 50.6 34 -4.8 23.4
03:25 1021 30.15 850 25.1 10.1 50.2 34 -5 23.1
03:30 1021 30.15 850 25.1 10 49.9 33 -5.7 21.8
03:35 1021 30.15 850 25.1 10.1 50.2 33 -5.5 22.1
03:40 1021 30.15 850 25.1 10.6 51 33 -5.1 22.8
03:45 1021 30.15 850 25.1 10.9 51.7 30 -5.9 21.3
03:50 1021 30.15 850 25.1 10.7 51.3 41 -2 28.4
03:55 1021 30.15 850 25.1 10.5 51 30 -6.1 21
04:00 1021 30.15 850 25.1 10.6 51 34 -4.8 23.4
04:05 1021 30.15 850 25.1 9.6 49.2 41 -3.1 26.3
04:10 1021 30.15 850 25.1 8.6 47.5 43 -3.3 26
04:15 1021 30.15 850 25.1 8.4 47 41 -4 24.9
04:20 1021 30.15 850 25.1 8.5 47.3 39 -4.6 23.8
04:25 1021 30.15 850 25.1 8.9 48 37 -5.1 22.8
04:30 1021 30.15 850 25.1 8.9 48 38 -4.7 23.5
04:35 1021 30.15 850 25.1 8.8 47.8 38 -4.7 23.5
04:40 1021 30.15 850 25.1 8.7 47.7 38 -4.8 23.3
04:45 1021 30.15 850 25.1 8.8 47.9 37 -5.1 22.8
04:50 1021 30.15 850 25.1 8.9 48 37 -5.1 22.8
04:55 1021 30.15 850 25.1 9.1 48.3 36 -5.1 22.9
05:00 1021 30.15 850 25.1 9.4 48.9 38 -4.2 24.5
05:05 1021 30.15 850 25.1 9.6 49.2 37 -4.5 23.8
05:10 1021 30.15 850 25.1 9.8 49.6 39 -3.4 25.9
05:15 1021 30.15 850 25.1 9.8 49.7 34 -5.1 22.8
05:20 1021 30.15 850 25.1 9.8 49.7 34 -5.3 22.5
05:25 1021 30.15 850 25.1 9.9 49.7 35 -5 23
05:30 1021 30.15 850 25.1 10.1 50.1 33 -5.5 22.2
05:35 1021 30.15 850 25.1 10.4 50.8 33 -5.2 22.7
05:40 1021 30.15 850 25.1 10.8 51.5 33 -4.9 23.2
05:45 1021 30.15 850 25.1 11.1 52 31 -5.5 22.1
05:50 1021 30.15 850 25.1 11.4 52.4 30 -5.4 22.3
05:55 1021 30.15 850 25.1 11.7 53.1 30 -5 22.9
06:00 1021 30.15 850 25.1 12.1 53.8 29 -5.3 22.4
06:05 1021 30.15 850 25.1 11.9 53.4 29 -5.3 22.4
06:10 1021 30.15 850 25.1 12.4 54.4 29 -4.9 23.2
06:15 1021 30.15 850 25.1 12.9 55.2 35 -2 28.3
06:20 1021 30.15 850 25.1 13.1 55.7 31 -3.5 25.8
06:25 1021 30.15 850 25.1 13.4 56.2 34 -1.9 28.6
06:30 1021 30.15 850 25.1 12.7 54.9 32 -3.5 25.7
06:35 1021 30.15 850 25.1 12.5 54.5 35 -2.4 27.6
06:40 1021 30.15 850 25.1 12.4 54.2 37 -2 28.5
06:45 1021 30.15 850 25.1 12.5 54.5 33 -3.2 26.3
06:50 1021 30.15 850 25.1 12.6 54.7 33 -3 26.6
06:55 1021 30.15 850 25.1 12.6 54.6 37 -1.9 28.7
07:00 1021 30.15 850 25.1 13.2 55.7 33 -2.8 26.9
07:05 1021 30.15 850 25.1 13.8 56.8 31 -3.2 26.3
07:10 1021 30.15 850 25.1 14.4 57.8 30 -2.7 27.1
07:15 1021 30.15 850 25.1 14.6 58.2 32 -2 28.5
07:20 1021 30.15 850 25.1 14.4 57.9 29 -3.3 26.1
07:25 1021 30.15 851 25.13 14.6 58.3 29 -3 26.5
07:30 1021 30.15 851 25.13 15.3 59.5 26 -3.8 25.2
07:35 1021 30.15 851 25.13 15.2 59.3 26 -4.2 24.5
07:40 1021 30.15 851 25.13 15.3 59.5 26 -4.2 24.4
07:45 1021 30.15 850 25.1 15.4 59.6 23 -5.5 22.1
07:50 1021 30.15 851 25.13 15.6 60 23 -5.6 22
07:55 1021 30.15 850 25.1 15.6 60.1 25 -4 24.8
08:00 1021 30.15 850 25.1 15.8 60.4 23 -5.2 22.7
08:05 1021 30.15 850 25.1 15.4 59.7 24 -5 23
08:10 1021 30.15 850 25.1 15.9 60.5 21 -6.1 21.1
08:15 1021 30.15 850 25.1 15.6 60.1 23 -5.3 22.4
08:20 1021 30.15 851 25.13 15.8 60.4 22 -5.7 21.8
08:25 1021 30.15 851 25.13 16.1 60.9 23 -4.9 23.1
08:30 1021 30.15 851 25.13 16.2 61.2 23 -4.8 23.3
08:35 1021 30.15 850 25.1 16.4 61.4 22 -5.3 22.5
08:40 1021 30.15 850 25.1 16 60.8 23 -5.1 22.8
08:45 1021 30.15 850 25.1 16.2 61.2 25 -3.6 25.6
08:50 1021 30.15 850 25.1 16.4 61.6 24 -4.2 24.4
08:55 1021 30.15 850 25.1 16.4 61.4 23 -4.8 23.4
09:00 1021 30.15 850 25.1 16.6 61.8 23 -4.8 23.4
09:05 1021 30.15 850 25.1 16.6 61.9 25 -3.6 25.5
09:10 1021 30.15 850 25.1 16.8 62.3 23 -4.5 23.9
09:15 1021 30.15 850 25.1 17.1 62.8 22 -4.9 23.1
09:20 1021 30.15 850 25.1 17.3 63.2 23 -4.2 24.5
09:25 1021 30.15 850 25.1 17.4 63.3 22 -4.5 24
09:30 1021 30.15 850 25.1 17.4 63.4 22 -4.1 24.6
09:35 1021 30.15 850 25.1 17.8 64 22 -3.9 25.1
09:40 1021 30.15 850 25.1 18 64.4 22 -3.8 25.2
09:45 1021 30.15 850 25.1 18.1 64.6 21 -4.4 24
09:50 1021 30.15 850 25.1 18.2 64.7 22 -4 24.9
09:55 1021 30.15 850 25.1 18.2 64.8 21 -4.3 24.2
10:00 1021 30.15 850 25.1 17.9 64.2 22 -4 24.8
10:05 1021 30.15 850 25.1 17.6 63.6 21 -4.9 23.1
10:10 1021 30.15 850 25.1 17.7 63.9 21 -4.8 23.3
10:15 1021 30.15 850 25.1 17.8 64 20 -5.2 22.6
10:20 1021 30.15 850 25.1 17.8 64.1 20 -5.2 22.7
10:25 1021 30.15 850 25.1 18 64.4 20 -5.2 22.6
10:30 1021 30.15 850 25.1 18.4 65.2 20 -4.7 23.5
10:35 1021 30.15 850 25.1 18.7 65.7 21 -3.9 24.9
10:40 1021 30.15 850 25.1 18.5 65.4 21 -3.9 25
10:45 1021 30.15 850 25.1 18.4 65.1 22 -3.5 25.7
10:50 1021 30.15 850 25.1 18.6 65.4 22 -3.6 25.5
10:55 1021 30.15 850 25.1 18.4 65.1 22 -3.8 25.2
11:00 1021 30.15 850 25.1 18.9 66.1 19 -5.1 22.8
11:05 1021 30.15 850 25.1 18.1 64.6 20 -5.1 22.8
11:10 1021 30.15 850 25.1 18.4 65.2 20 -4.6 23.7
11:15 1021 30.15 850 25.1 18.9 66 20 -4.7 23.5
11:20 1021 30.15 850 25.1 18.6 65.4 20 -5 23
11:25 1021 30.15 850 25.1 18.5 65.3 20 -4.6 23.7
11:30 1021 30.15 850 25.1 18.5 65.3 19 -5.2 22.6
11:35 1021 30.15 850 25.1 18.4 65 19 -5.4 22.3
11:40 1021 30.15 850 25.1 18.5 65.3 19 -5.8 21.6
11:45 1021 30.15 850 25.1 18.8 65.8 20 -4.2 24.4
11:50 1021 30.15 850 25.1 18.6 65.5 18 -5.8 21.6
11:55 1021 30.15 850 25.1 18.8 65.8 20 -4.7 23.5
12:00 1021 30.15 850 25.1 19.1 66.3 19 -4.8 23.4
12:05 1021 30.15 850 25.1 19.6 67.3 17 -5.7 21.8
12:10 1021 30.15 850 25.1 19.8 67.6 17 -5.5 22
12:15 1021 30.15 850 25.1 19.8 67.7 18 -5.1 22.7
12:20 1021 30.15 850 25.1 20 67.9 18 -4.6 23.7
12:25 1021 30.15 850 25.1 19.6 67.2 17 -6 21.2
12:30 1021 30.15 850 25.1 20.3 68.5 18 -4.6 23.6
12:35 1021 30.15 850 25.1 19.9 67.9 16 -6.8 19.7
12:40 1021 30.15 850 25.1 20.3 68.5 16 -6.6 20.1
12:45 1021 30.15 850 25.1 20.5 68.8 18 -4.3 24.3
12:50 1021 30.15 850 25.1 20.4 68.6 17 -5 23
12:55 1021 30.15 850 25.1 20.3 68.6 17 -5.2 22.6
13:00 1021 30.15 850 25.1 20.2 68.3 18 -4.9 23.2
13:05 1021 30.15 850 25.1 20.4 68.8 17 -5.3 22.5
13:10 1020 30.12 850 25.1 20.6 69.1 15 -6.4 20.5
13:15 1021 30.15 850 25.1 20.4 68.8 19 -4.1 24.6
13:20 1021 30.15 850 25.1 20.5 68.9 18 -4.5 23.8
13:25 1021 30.15 850 25.1 20.9 69.5 17 -4.9 23.2
13:30 1021 30.15 850 25.1 20.3 68.5 18 -4.9 23.1
13:35 1021 30.15 850 25.1 20.6 69 18 -4.5 23.8
13:40 1021 30.15 850 25.1 20.6 69.1 17 -5.1 22.8
13:45 1021 30.15 850 25.1 20.4 68.8 18 -4.4 24
13:50 1021 30.15 850 25.1 20.5 68.8 19 -4 24.9
13:55 1021 30.15 850 25.1 20.4 68.8 17 -5.3 22.5
14:00 1021 30.15 850 25.1 20.8 69.4 17 -4.8 23.3
14:05 1021 30.15 850 25.1 20.9 69.6 18 -4.4 24.1
14:10 1021 30.15 850 25.1 20.9 69.6 18 -4.4 24
14:15 1021 30.15 850 25.1 20.7 69.3 17 -4.8 23.4
14:20 1021 30.15 850 25.1 21.3 70.3 18 -3.6 25.6
14:25 1021 30.15 850 25.1 21.3 70.3 17 -4.3 24.3
14:30 1021 30.15 850 25.1 21.4 70.5 16 -5.2 22.7
14:35 1021 30.15 850 25.1 21.1 69.9 17 -4.8 23.4
14:40 1021 30.15 850 25.1 21.2 70.2 16 -5.3 22.5
14:45 1021 30.15 850 25.1 21.2 70.1 17 -5.1 22.9
14:50 1021 30.15 850 25.1 20.5 68.9 16 -5.8 21.6
14:55 1021 30.15 850 25.1 20.4 68.6 14 -7.5 18.4
15:00 1021 30.15 850 25.1 20.6 69 15 -7.1 19.3
15:05 1021 30.15 850 25.1 21 69.7 14 -7.7 18.2
15:10 1021 30.15 850 25.1 20.8 69.5 14 -7.4 18.6
15:15 1021 30.15 850 25.1 20.6 69.2 15 -7 19.4
15:20 1021 30.15 850 25.1 20.6 69.1 15 -7 19.4
15:25 1021 30.15 850 25.1 19.8 67.6 15 -7.7 18.1
15:30 1021 30.15 850 25.1 19.2 66.5 15 -8.2 17.3
15:35 1021 30.15 850 25.1 18.9 66 15 -8.2 17.3
15:40 1021 30.15 850 25.1 19 66.1 16 -7.3 18.8
15:45 1021 30.15 850 25.1 18.4 65 16 -8.1 17.4
15:50 1021 30.15 850 25.1 18 64.4 16 -7.8 17.9
15:55 1021 30.15 850 25.1 17.7 63.9 15 -8.8 16.1
16:00 1021 30.15 850 25.1 17.7 63.9 15 -8.9 16
16:05 1021 30.15 851 25.13 17.9 64.1 17 -7.6 18.3
16:10 1021 30.15 851 25.13 17.8 64.1 16 -8.6 16.5
16:15 1021 30.15 851 25.13 17.8 64.1 17 -7.2 19
16:20 1022 30.18 851 25.13 17.9 64.1 17 -7.5 18.5
16:25 1022 30.18 851 25.13 17.8 64 18 -7 19.5
16:30 1022 30.18 851 25.13 17.7 63.9 18 -6.5 20.2
16:35 1022 30.18 851 25.13 17.6 63.8 18 -7 19.4
16:40 1022 30.18 851 25.13 17.8 64 18 -7.1 19.3
16:45 1022 30.18 851 25.13 18 64.4 17 -7.1 19.2
16:50 1022 30.18 851 25.13 17.9 64.2 18 -6.9 19.6
16:55 1022 30.18 851 25.13 17.9 64.3 18 -6.4 20.5
17:00 1022 30.18 851 25.13 18 64.4 17 -7.5 18.4
17:05 1022 30.18 851 25.13 18 64.5 17 -7.2 19
17:10 1022 30.18 851 25.13 17.8 64 18 -6.6 20.1
17:15 1022 30.18 851 25.13 18 64.3 18 -6.5 20.3
17:20 1022 30.18 851 25.13 18 64.3 18 -6.3 20.6
17:25 1022 30.18 851 25.13 18 64.3 18 -6.4 20.4
17:30 1022 30.18 851 25.13 17.9 64.2 19 -6.3 20.7
17:35 1022 30.18 851 25.13 17.8 64.1 19 -5.8 21.6
17:40 1022 30.18 851 25.13 17.5 63.5 20 -5.5 22.1
17:45 1022 30.18 851 25.13 17.3 63.1 21 -5.1 22.9
17:50 1022 30.18 851 25.13 17.3 63.1 21 -4.9 23.1
17:55 1022 30.18 852 25.16 17.2 63 21 -4.9 23.2
18:00 1022 30.18 852 25.16 17.2 62.9 22 -4.8 23.4
18:05 1023 30.21 852 25.16 17 62.7 21 -5.3 22.4
18:10 1023 30.21 852 25.16 17.1 62.8 21 -5.2 22.6
18:15 1023 30.21 852 25.16 17.2 62.9 21 -5 22.9
18:20 1023 30.21 852 25.16 17.1 62.8 22 -4.9 23.2
18:25 1023 30.21 852 25.16 17 62.7 23 -4.1 24.6
18:30 1023 30.21 852 25.16 16.8 62.2 23 -4.3 24.3
18:35 1023 30.21 852 25.16 16.7 62.1 23 -4.2 24.4
18:40 1023 30.21 852 25.16 16.7 62 24 -4 24.8
18:45 1023 30.21 852 25.16 16.6 61.9 24 -3.8 25.2
18:50 1023 30.21 852 25.16 16.5 61.7 25 -3.7 25.4
18:55 1023 30.21 853 25.19 16.3 61.4 26 -3.3 26
19:00 1024 30.24 853 25.19 16.2 61.1 26 -3.3 26.1
19:05 1024 30.24 853 25.19 16.1 61 26 -3.1 26.5
19:10 1024 30.24 853 25.19 16.1 61 26 -3.1 26.5
19:15 1024 30.24 853 25.19 16.1 61 27 -2.9 26.8
19:20 1024 30.24 853 25.19 16 60.7 27 -2.8 26.9
19:25 1024 30.24 853 25.19 16 60.8 27 -2.9 26.7
19:30 1024 30.24 853 25.19 16 60.9 26 -3.1 26.4
19:35 1024 30.24 853 25.19 16 60.8 27 -3 26.7
19:40 1024 30.24 853 25.19 16.1 60.9 26 -3.3 26.1
19:45 1024 30.24 853 25.19 16.1 61 26 -3.2 26.3
19:50 1024 30.24 853 25.19 15.7 60.3 30 -1.6 29.1
19:55 1024 30.24 853 25.19 15.1 59.2 30 -2.4 27.8
20:00 1024 30.24 854 25.22 15 58.9 30 -2.6 27.4
20:05 1024 30.24 854 25.22 14.9 58.8 28 -3.2 26.2
20:10 1024 30.24 854 25.22 14.8 58.6 29 -3.1 26.4
20:15 1024 30.24 854 25.22 14.6 58.2 30 -2.8 26.9
20:20 1025 30.27 854 25.22 14.3 57.7 30 -2.9 26.7
20:25 1025 30.27 854 25.22 14 57.2 31 -2.7 27.1
20:30 1025 30.27 854 25.22 13.8 56.8 32 -2.7 27.1
20:35 1025 30.27 854 25.22 13.7 56.6 32 -2.8 27
20:40 1025 30.27 854 25.22 13.6 56.4 32 -2.7 27.2
20:45 1025 30.27 854 25.22 13.3 56 33 -2.7 27.1
20:50 1025 30.27 854 25.22 13.1 55.6 33 -2.6 27.3
20:55 1025 30.27 854 25.22 13 55.4 33 -2.8 26.9
21:00 1025 30.27 854 25.22 13 55.3 34 -2.5 27.4
21:05 1025 30.27 854 25.22 12.7 54.8 36 -2.1 28.3
21:10 1025 30.27 854 25.22 12.4 54.2 36 -2.1 28.2
21:15 1025 30.27 855 25.25 12.3 54.2 36 -2.1 28.1
21:20 1025 30.27 855 25.25 12.3 54.1 36 -2.2 28.1
21:25 1025 30.27 855 25.25 12.2 53.9 37 -2 28.4
21:30 1026 30.3 855 25.25 12.1 53.7 37 -2.1 28.1
21:35 1026 30.3 855 25.25 12.2 53.9 36 -2.3 27.8
21:40 1026 30.3 855 25.25 12.2 54 36 -2.4 27.7
21:45 1026 30.3 855 25.25 12.3 54.2 37 -2 28.4
21:50 1026 30.3 855 25.25 12.2 54 37 -1.9 28.5
21:55 1026 30.3 855 25.25 12.1 53.7 38 -1.8 28.8
22:00 1026 30.3 855 25.25 11.8 53.3 40 -1.4 29.5
22:05 1026 30.3 855 25.25 11.4 52.6 42 -1 30.1
22:10 1026 30.3 855 25.25 11.2 52.2 43 -0.9 30.3
22:15 1026 30.3 855 25.25 11.2 52.2 43 -0.9 30.4
22:20 1026 30.3 855 25.25 11.2 52.1 44 -0.7 30.7
22:25 1026 30.3 855 25.25 11 51.9 45 -0.5 31
22:30 1026 30.3 855 25.25 10.8 51.5 45 -0.4 31.2
22:35 1026 30.3 855 25.25 10.7 51.3 46 -0.4 31.3
22:40 1026 30.3 855 25.25 10.7 51.3 46 -0.5 31
22:45 1026 30.3 855 25.25 10.8 51.4 45 -0.7 30.8
22:50 1026 30.3 855 25.25 10.8 51.5 45 -0.6 30.8
22:55 1026 30.3 855 25.25 10.8 51.4 46 -0.5 31.1
23:00 1026 30.3 855 25.25 10.6 51.2 48 0 32.1
23:05 1026 30.3 855 25.25 10.4 50.6 48 -0 31.9
23:10 1026 30.3 855 25.25 10.3 50.5 47 -0.4 31.2
23:15 1026 30.3 855 25.25 10.7 51.2 47 -0.2 31.7
23:20 1026 30.3 855 25.25 10.5 50.9 47 -0.3 31.5
23:25 1026 30.3 855 25.25 10.3 50.5 49 -0 31.9
23:30 1026 30.3 855 25.25 10.1 50.2 50 0.1 32.2
23:35 1026 30.3 855 25.25 9.8 49.7 51 0.3 32.6
23:40 1026 30.3 855 25.25 9.7 49.5 51 0.1 32.1
23:45 1026 30.3 855 25.25 9.7 49.4 52 0.3 32.5
23:50 1026 30.3 855 25.25 9.4 49 53 0.3 32.5
23:55 1026 30.3 855 25.25 9.3 48.7 53 0.2 32.3
24:00 1026 30.3 855 25.25 9.1 48.4 54 0.2 32.4